VTBD/DMK METAR and TAF weather

Enter ICAO airport designator
Station Type Date Time Source
VTBD METAR 2022/07/03 14:30 UTC NOAA

VTBD 031430Z 21006KT 9999 FEW020 29/26 Q1005 NOSIG


Station Type Date Time Source
VTBD Decoded METAR 2022/07/03 14:30 UTC NOAA

Don Muang, Thailand (VTBD) 13-55N 100-36E 12M
Jul 03, 2022 - 10:30 AM EDT / 2022.07.03 1430 UTC
Wind: from the SSW (210 degrees) at 7 MPH (6 KT):0
Visibility: greater than 7 mile(s):0
Sky conditions: mostly clear
Temperature: 84 F (29 C)
Dew Point: 78 F (26 C)
Relative Humidity: 83%
Pressure (altimeter): 29.68 in. Hg (1005 hPa)
ob: VTBD 031430Z 21006KT 9999 FEW020 29/26 Q1005 NOSIG
cycle: 14

Station Type Date Time Source
VTBD TAF 2022/07/03 12:36 UTC NOAA

TAF TAF VTBD 031100Z 0312/0418 10005KT 9000 FEW020 SCT080
BECMG 0312/0314 22008KT
TEMPO 0315/0319 26010G25KT 4000 TSRA FEW018CB SCT040 BKN080

Example: see airport list